createdAt,value
2018-02-17T00:01:22.017Z,18.37
2018-02-17T00:03:49.477Z,17.30
2018-02-17T00:06:16.937Z,17.63
2018-02-17T00:08:44.389Z,21.77
2018-02-17T00:11:11.857Z,19.83
2018-02-17T00:13:39.305Z,18.00
2018-02-17T00:16:06.768Z,23.30
2018-02-17T00:18:34.221Z,19.30
2018-02-17T00:21:01.681Z,17.77
2018-02-17T00:23:29.138Z,17.43
2018-02-17T00:25:56.610Z,16.90
2018-02-17T00:28:24.062Z,18.60
2018-02-17T00:30:51.526Z,19.60
2018-02-17T00:33:18.986Z,20.00
2018-02-17T00:35:46.471Z,17.73
2018-02-17T00:38:14.688Z,18.93
2018-02-17T00:40:42.917Z,22.10
2018-02-17T00:43:10.378Z,19.37
2018-02-17T00:45:37.861Z,19.00
2018-02-17T00:48:06.108Z,21.40
2018-02-17T00:50:33.558Z,20.80
2018-02-17T00:53:01.026Z,19.33
2018-02-17T00:55:28.478Z,22.27
2018-02-17T00:57:55.936Z,21.80
2018-02-17T01:00:23.393Z,21.03
2018-02-17T01:02:50.859Z,27.43
2018-02-17T01:05:18.305Z,18.77
2018-02-17T01:07:45.766Z,21.17
2018-02-17T01:10:13.221Z,20.10
2018-02-17T01:12:40.690Z,18.70
2018-02-17T01:15:08.138Z,21.23
2018-02-17T01:17:35.597Z,21.57
2018-02-17T01:20:03.055Z,21.60
2018-02-17T01:22:30.521Z,21.33
2018-02-17T01:24:57.966Z,21.93
2018-02-17T01:27:25.424Z,27.87
2018-02-17T01:29:52.881Z,21.90
2018-02-17T01:32:20.338Z,20.17
2018-02-17T01:34:47.794Z,20.93
2018-02-17T01:37:15.255Z,23.03
2018-02-17T01:39:42.705Z,21.90
2018-02-17T01:42:10.170Z,20.50
2018-02-17T01:44:37.621Z,20.63
2018-02-17T01:47:05.080Z,24.00
2018-02-17T01:49:32.530Z,27.47
2018-02-17T01:51:59.995Z,29.50
2018-02-17T01:54:27.450Z,22.83
2018-02-17T01:56:54.917Z,30.23
2018-02-17T01:59:23.181Z,34.90
2018-02-17T02:01:50.641Z,25.00
2018-02-17T02:04:18.103Z,33.33
2018-02-17T02:06:45.553Z,26.13
2018-02-17T02:09:13.012Z,30.00
2018-02-17T02:11:40.476Z,40.07
2018-02-17T02:14:07.935Z,35.60
2018-02-17T02:16:35.390Z,34.30
2018-02-17T02:19:02.875Z,28.30
2018-02-17T02:21:30.326Z,32.80
2018-02-17T02:23:57.789Z,36.17
2018-02-17T02:26:25.242Z,41.10
2018-02-17T02:28:52.700Z,43.77
2018-02-17T02:31:20.158Z,40.90
2018-02-17T02:33:47.622Z,33.53
2018-02-17T02:36:15.079Z,28.97
2018-02-17T02:38:42.530Z,30.17
2018-02-17T02:41:09.986Z,41.30
2018-02-17T02:43:37.453Z,39.53
2018-02-17T02:46:04.906Z,33.60
2018-02-17T02:48:32.388Z,33.40
2018-02-17T02:51:00.609Z,29.67
2018-02-17T02:53:28.079Z,29.13
2018-02-17T02:55:55.528Z,27.40
2018-02-17T02:58:22.988Z,31.57
2018-02-17T03:00:50.441Z,28.77
2018-02-17T03:03:17.901Z,30.13
2018-02-17T03:05:45.353Z,26.30
2018-02-17T03:08:12.817Z,25.60
2018-02-17T03:10:40.273Z,22.97
2018-02-17T03:13:07.737Z,23.10
2018-02-17T03:15:35.185Z,25.43
2018-02-17T03:18:02.645Z,25.83
2018-02-17T03:20:30.101Z,27.50
2018-02-17T03:22:57.573Z,27.87
2018-02-17T03:25:25.030Z,26.43
2018-02-17T03:27:52.473Z,27.50
2018-02-17T03:30:19.932Z,29.93
2018-02-17T03:32:47.384Z,26.43
2018-02-17T03:35:14.850Z,25.57
2018-02-17T03:37:42.300Z,34.63
2018-02-17T03:40:09.769Z,27.60
2018-02-17T03:42:37.217Z,26.20
2018-02-17T03:45:04.688Z,28.03
2018-02-17T03:47:32.163Z,28.63
2018-02-17T03:50:00.402Z,28.17
2018-02-17T03:52:27.844Z,31.27
2018-02-17T03:54:55.305Z,29.80
2018-02-17T03:57:22.766Z,26.63
2018-02-17T03:59:50.220Z,25.10
2018-02-17T04:02:17.673Z,30.60
2018-02-17T04:04:45.149Z,28.80
2018-02-17T04:07:12.597Z,26.70
2018-02-17T04:09:40.053Z,29.27
2018-02-17T04:12:07.505Z,30.20
2018-02-17T04:14:34.962Z,29.63
2018-02-17T04:17:02.416Z,27.00
2018-02-17T04:19:29.876Z,30.60
2018-02-17T04:21:57.329Z,27.53
2018-02-17T04:24:25.561Z,32.57
2018-02-17T04:26:53.017Z,30.03
2018-02-17T04:29:20.470Z,29.23
2018-02-17T04:31:47.928Z,31.60
2018-02-17T04:34:15.386Z,31.27
2018-02-17T04:36:42.837Z,34.80
2018-02-17T04:39:10.301Z,33.50
2018-02-17T04:41:43.352Z,26.90
2018-02-17T04:57:46.625Z,28.83
2018-02-17T05:00:15.652Z,31.07
2018-02-17T05:02:58.002Z,29.83
2018-02-17T05:05:40.320Z,31.27
2018-02-17T05:08:16.425Z,28.67
2018-02-17T05:10:43.885Z,28.43
2018-02-17T05:13:11.349Z,31.47
2018-02-17T05:18:58.256Z,30.13
2018-02-17T05:21:29.128Z,35.97
2018-02-17T05:24:00.509Z,31.17
2018-02-17T05:26:33.678Z,28.57
2018-02-17T05:29:16.018Z,35.10
2018-02-17T05:34:43.578Z,35.93
2018-02-17T05:37:11.041Z,30.50
2018-02-17T05:39:39.386Z,30.70
2018-02-17T05:42:25.608Z,31.33
2018-02-17T05:44:55.893Z,31.67
2018-02-17T05:47:34.037Z,32.63
2018-02-17T05:50:01.493Z,31.53
2018-02-17T05:52:28.953Z,33.07
2018-02-17T05:54:56.409Z,28.50
2018-02-17T05:57:23.868Z,28.60
2018-02-17T05:59:51.321Z,30.03
2018-02-17T06:02:18.776Z,41.47
2018-02-17T06:04:46.230Z,46.90
2018-02-17T06:07:13.688Z,45.80
2018-02-17T06:09:41.132Z,31.80
2018-02-17T06:12:08.620Z,28.63
2018-02-17T06:14:36.093Z,32.47
2018-02-17T06:17:04.305Z,25.80
2018-02-17T06:19:31.765Z,30.43
2018-02-17T06:21:59.217Z,29.63
2018-02-17T06:24:26.679Z,29.90
2018-02-17T06:26:54.130Z,28.23
2018-02-17T06:29:21.606Z,29.47
2018-02-17T06:31:49.073Z,30.20
2018-02-17T06:34:16.533Z,28.33
2018-02-17T06:36:43.985Z,27.93
2018-02-17T06:39:11.466Z,32.77
2018-02-17T06:41:39.677Z,32.10
2018-02-17T06:44:07.140Z,29.97
2018-02-17T06:46:34.593Z,32.90
2018-02-17T06:49:02.053Z,30.90
2018-02-17T06:51:29.505Z,31.33
2018-02-17T06:53:56.967Z,30.27
2018-02-17T06:56:24.431Z,31.90
2018-02-17T06:58:51.883Z,28.63
2018-02-17T07:01:19.333Z,31.20
2018-02-17T07:03:46.799Z,31.20
2018-02-17T07:06:14.498Z,29.97
2018-02-17T07:08:42.736Z,27.43
2018-02-17T07:11:10.191Z,29.23
2018-02-17T07:13:37.653Z,31.03
2018-02-17T07:16:05.136Z,28.50
2018-02-17T07:18:32.602Z,27.13
2018-02-17T07:21:00.062Z,30.23
2018-02-17T07:23:27.501Z,31.40
2018-02-17T07:25:54.978Z,42.20
2018-02-17T07:28:22.426Z,33.57
2018-02-17T07:30:49.894Z,34.53
2018-02-17T07:33:18.149Z,30.90
2018-02-17T07:35:45.609Z,30.30
2018-02-17T07:38:13.061Z,25.67
2018-02-17T07:40:40.521Z,28.07
2018-02-17T07:43:07.976Z,27.77
2018-02-17T07:45:35.435Z,31.70
2018-02-17T07:48:02.886Z,27.33
2018-02-17T07:50:30.350Z,26.57
2018-02-17T07:52:57.793Z,29.03
2018-02-17T07:55:25.252Z,26.73
2018-02-17T07:57:52.716Z,28.80
2018-02-17T08:00:20.174Z,30.10
2018-02-17T08:02:47.634Z,24.70
2018-02-17T08:05:15.086Z,27.20
2018-02-17T08:07:42.540Z,30.20
2018-02-17T08:10:10.001Z,26.13
2018-02-17T08:12:37.454Z,29.33
2018-02-17T08:15:04.925Z,27.50
2018-02-17T08:17:32.377Z,28.93
2018-02-17T08:19:59.837Z,30.23
2018-02-17T08:22:28.061Z,29.93
2018-02-17T08:24:55.533Z,29.73
2018-02-17T08:27:22.985Z,30.47
2018-02-17T08:29:50.447Z,26.43
2018-02-17T08:32:17.910Z,24.33
2018-02-17T08:34:46.137Z,27.80
2018-02-17T08:37:13.593Z,25.63
2018-02-17T08:39:41.067Z,26.57
2018-02-17T08:42:08.531Z,27.03
2018-02-17T08:44:35.982Z,28.67
2018-02-17T08:47:03.441Z,31.93
2018-02-17T08:49:30.889Z,25.83
2018-02-17T08:51:58.368Z,24.70
2018-02-17T08:54:25.821Z,23.90
2018-02-17T08:56:53.285Z,25.63
2018-02-17T08:59:20.738Z,29.60
2018-02-17T09:01:48.200Z,30.30
2018-02-17T09:04:16.253Z,31.93
2018-02-17T09:06:43.750Z,30.97
2018-02-17T09:09:11.207Z,29.60
2018-02-17T09:11:38.669Z,25.90
2018-02-17T09:14:06.124Z,27.37
2018-02-17T09:16:33.585Z,29.47
2018-02-17T09:19:01.038Z,24.50
2018-02-17T09:21:28.496Z,27.40
2018-02-17T09:23:55.946Z,27.33
2018-02-17T09:26:23.406Z,25.13
2018-02-17T09:28:50.859Z,25.57
2018-02-17T09:31:18.317Z,30.47
2018-02-17T09:33:45.773Z,30.87
2018-02-17T09:36:13.238Z,25.70
2018-02-17T09:38:40.697Z,26.53
2018-02-17T09:41:08.158Z,27.93
2018-02-17T09:43:35.622Z,27.13
2018-02-17T09:46:03.889Z,26.40
2018-02-17T09:48:31.310Z,26.27
2018-02-17T09:50:58.782Z,25.20
2018-02-17T09:53:26.244Z,27.17
2018-02-17T09:55:53.701Z,28.67
2018-02-17T09:58:21.164Z,29.33
2018-02-17T10:00:48.617Z,21.83
2018-02-17T10:03:16.081Z,25.10
2018-02-17T10:05:43.542Z,25.13
2018-02-17T10:08:10.997Z,26.57
2018-02-17T10:10:38.449Z,24.53
2018-02-17T10:13:05.909Z,23.77
2018-02-17T10:15:33.374Z,26.47
2018-02-17T10:18:00.841Z,25.43
2018-02-17T10:20:29.061Z,24.93
2018-02-17T10:22:56.523Z,23.07
2018-02-17T10:25:23.986Z,25.30
2018-02-17T10:27:52.215Z,22.93
2018-02-17T10:30:20.617Z,20.67
2018-02-17T10:32:48.075Z,23.53
2018-02-17T10:35:15.548Z,25.07
2018-02-17T10:37:43.002Z,23.50
2018-02-17T10:40:11.234Z,25.33
2018-02-17T10:42:39.458Z,19.40
2018-02-17T10:45:06.918Z,26.17
2018-02-17T10:47:34.373Z,21.10
2018-02-17T10:50:01.838Z,24.73
2018-02-17T10:52:29.290Z,25.17
2018-02-17T10:54:56.754Z,24.30
2018-02-17T10:57:24.210Z,26.17
2018-02-17T10:59:51.674Z,26.47
2018-02-17T11:02:19.126Z,27.23
2018-02-17T11:04:46.599Z,24.63
2018-02-17T11:07:14.046Z,24.87
2018-02-17T11:09:41.514Z,23.80
2018-02-17T11:12:09.744Z,23.20
2018-02-17T11:14:37.199Z,21.10
2018-02-17T11:17:04.650Z,18.23
2018-02-17T11:19:32.110Z,24.77
2018-02-17T11:21:59.566Z,24.00
2018-02-17T11:24:27.034Z,22.93
2018-02-17T11:26:54.481Z,16.73
2018-02-17T11:29:21.941Z,24.50
2018-02-17T11:31:49.398Z,17.50
2018-02-17T11:34:16.857Z,16.73
2018-02-17T11:36:44.329Z,18.93
2018-02-17T11:39:11.791Z,22.10
2018-02-17T11:41:39.241Z,21.00
2018-02-17T11:44:06.703Z,18.10
2018-02-17T11:46:34.154Z,18.10
2018-02-17T11:49:01.621Z,20.23
2018-02-17T11:51:29.085Z,20.00
2018-02-17T11:53:56.550Z,17.53
2018-02-17T11:56:24.780Z,18.07
2018-02-17T11:58:52.234Z,17.13
2018-02-17T12:01:19.710Z,16.30
2018-02-17T12:03:47.170Z,17.10
2018-02-17T12:06:14.617Z,17.90
2018-02-17T12:08:42.075Z,16.30
2018-02-17T12:11:09.537Z,19.47
2018-02-17T12:13:36.990Z,15.93
2018-02-17T12:16:04.453Z,17.40
2018-02-17T12:18:31.926Z,17.83
2018-02-17T12:20:59.388Z,17.63
2018-02-17T12:23:26.879Z,15.40
2018-02-17T12:25:54.337Z,13.90
2018-02-17T12:28:21.795Z,16.87
2018-02-17T12:30:49.259Z,16.47
2018-02-17T12:33:16.715Z,16.53
2018-02-17T12:35:44.166Z,18.10
2018-02-17T12:38:11.620Z,18.17
2018-02-17T12:40:39.081Z,19.57
2018-02-17T12:43:06.529Z,16.10
2018-02-17T12:45:33.989Z,20.90
2018-02-17T12:48:01.444Z,16.57
2018-02-17T12:50:28.906Z,17.20
2018-02-17T12:52:56.355Z,17.20
2018-02-17T12:55:23.839Z,20.43
2018-02-17T12:57:51.302Z,20.43
2018-02-17T13:00:18.751Z,17.43
2018-02-17T13:02:46.210Z,21.33
2018-02-17T13:05:13.661Z,17.67
2018-02-17T13:07:41.131Z,16.80
2018-02-17T13:10:08.621Z,22.53
2018-02-17T13:12:36.087Z,21.50
2018-02-17T13:15:04.302Z,22.60
2018-02-17T13:17:31.757Z,22.70
2018-02-17T13:19:59.217Z,22.30
2018-02-17T13:22:26.670Z,22.10
2018-02-17T13:24:54.126Z,20.30
2018-02-17T13:27:21.587Z,25.07
2018-02-17T13:29:49.042Z,23.20
2018-02-17T13:32:16.520Z,21.13
2018-02-17T13:34:43.972Z,18.63
2018-02-17T13:37:11.437Z,18.70
2018-02-17T13:39:38.893Z,18.07
2018-02-17T13:42:06.350Z,19.80
2018-02-17T13:44:33.801Z,18.50
2018-02-17T13:47:01.262Z,17.43
2018-02-17T13:49:28.718Z,14.60
2018-02-17T13:51:56.183Z,17.47
2018-02-17T13:54:23.637Z,19.10
2018-02-17T13:56:51.093Z,16.70
2018-02-17T13:59:18.558Z,14.70
2018-02-17T14:01:46.022Z,14.63
2018-02-17T14:04:13.476Z,16.30
2018-02-17T14:06:40.935Z,12.43
2018-02-17T14:09:08.397Z,15.33
2018-02-17T14:11:35.882Z,13.73
2018-02-17T14:14:04.102Z,14.47
2018-02-17T14:16:31.559Z,12.80
2018-02-17T14:18:59.026Z,11.23
2018-02-17T14:21:26.483Z,12.63
2018-02-17T14:23:53.950Z,11.43
2018-02-17T14:26:21.409Z,10.87
2018-02-17T14:28:48.861Z,12.53
2018-02-17T14:31:16.320Z,10.13
2018-02-17T14:33:43.777Z,11.23
2018-02-17T14:36:11.238Z,11.37
2018-02-17T14:38:38.690Z,10.20
2018-02-17T14:41:06.148Z,11.13
2018-02-17T14:43:33.593Z,8.13
2018-02-17T14:46:01.046Z,9.10
2018-02-17T14:48:28.527Z,7.83
2018-02-17T14:50:55.966Z,8.70
2018-02-17T14:53:23.419Z,7.80
2018-02-17T14:55:50.870Z,8.37
2018-02-17T14:58:18.333Z,9.43
2018-02-17T15:00:45.779Z,7.27
2018-02-17T15:03:13.235Z,6.60
2018-02-17T15:05:40.691Z,6.23
2018-02-17T15:08:08.161Z,7.50
2018-02-17T15:10:35.602Z,7.27
2018-02-17T15:13:03.056Z,7.97
2018-02-17T15:15:30.506Z,6.50
2018-02-17T15:17:58.060Z,7.27
2018-02-17T15:20:25.410Z,6.30
2018-02-17T15:22:52.859Z,7.20
2018-02-17T15:25:20.323Z,7.93
2018-02-17T15:27:47.774Z,9.00
2018-02-17T15:30:15.234Z,9.60
2018-02-17T15:32:42.703Z,9.60
2018-02-17T15:35:10.157Z,9.90
2018-02-17T15:37:37.611Z,8.43
2018-02-17T15:40:05.065Z,10.43
2018-02-17T15:42:32.522Z,11.23
2018-02-17T15:44:59.987Z,11.30
2018-02-17T15:47:27.429Z,10.53
2018-02-17T15:49:54.895Z,12.03
2018-02-17T15:52:22.355Z,11.60
2018-02-17T15:54:49.838Z,11.10
2018-02-17T15:57:17.294Z,11.77
2018-02-17T15:59:44.754Z,12.00
2018-02-17T16:02:12.216Z,12.27
2018-02-17T16:04:39.678Z,14.83
2018-02-17T16:07:07.129Z,13.37
2018-02-17T16:09:34.585Z,15.73
2018-02-17T16:12:02.046Z,12.90
2018-02-17T16:14:29.508Z,17.67
2018-02-17T16:16:57.725Z,15.37
2018-02-17T16:19:25.210Z,16.17
2018-02-17T16:21:52.669Z,14.40
2018-02-17T16:24:20.127Z,15.47
2018-02-17T16:26:47.590Z,17.90
2018-02-17T16:29:15.057Z,17.47
2018-02-17T16:31:42.518Z,16.27
2018-02-17T16:34:09.974Z,19.60
2018-02-17T16:36:37.439Z,18.73
2018-02-17T16:39:05.658Z,19.63
2018-02-17T16:41:33.130Z,19.90
2018-02-17T16:44:00.581Z,17.83
2018-02-17T16:46:28.056Z,18.67
2018-02-17T16:48:55.502Z,21.83
2018-02-17T16:51:23.731Z,22.30
2018-02-17T16:53:51.181Z,21.63
2018-02-17T16:56:19.413Z,20.83
2018-02-17T16:58:46.861Z,21.20
2018-02-17T17:01:14.326Z,20.67
2018-02-17T17:03:41.781Z,20.50
2018-02-17T17:06:09.241Z,21.37
2018-02-17T17:08:36.697Z,22.93
2018-02-17T17:11:04.166Z,22.33
2018-02-17T17:13:31.623Z,22.17
2018-02-17T17:15:59.082Z,22.43
2018-02-17T17:18:26.533Z,23.03
2018-02-17T17:20:54.000Z,22.63
2018-02-17T17:23:21.454Z,22.70
2018-02-17T17:25:48.922Z,22.90
2018-02-17T17:28:17.137Z,24.10
2018-02-17T17:30:44.605Z,23.27
2018-02-17T17:33:12.071Z,23.30
2018-02-17T17:35:39.530Z,21.00
2018-02-17T17:38:06.986Z,22.30
2018-02-17T17:40:34.447Z,23.97
2018-02-17T17:43:01.921Z,27.70
2018-02-17T17:45:29.370Z,22.83
2018-02-17T17:47:56.857Z,24.60
2018-02-17T17:50:24.294Z,25.60
2018-02-17T17:52:51.762Z,26.60
2018-02-17T17:55:19.212Z,25.17
2018-02-17T17:57:46.677Z,25.87
2018-02-17T18:00:14.902Z,25.53
2018-02-17T18:02:42.381Z,23.67
2018-02-17T18:05:09.833Z,23.37
2018-02-17T18:07:37.295Z,25.20
2018-02-17T18:10:04.754Z,24.70
2018-02-17T18:12:32.213Z,25.67
2018-02-17T18:14:59.677Z,25.63
2018-02-17T18:17:27.145Z,27.90
2018-02-17T18:19:55.372Z,28.17
2018-02-17T18:22:22.835Z,23.73
2018-02-17T18:24:50.290Z,30.17
2018-02-17T18:27:17.774Z,31.00
2018-02-17T18:29:45.250Z,27.60
2018-02-17T18:32:13.539Z,27.83
2018-02-17T18:34:40.937Z,31.40
2018-02-17T18:37:08.394Z,30.57
2018-02-17T18:39:35.849Z,36.93
2018-02-17T18:42:03.301Z,33.50
2018-02-17T18:44:30.774Z,32.97
2018-02-17T18:46:58.223Z,29.60
2018-02-17T18:49:25.687Z,34.57
2018-02-17T18:51:53.907Z,37.47
2018-02-17T18:54:22.141Z,32.97
2018-02-17T18:56:49.594Z,36.77
2018-02-17T18:59:17.053Z,40.83
2018-02-17T19:01:44.517Z,37.67
2018-02-17T19:04:11.979Z,35.90
2018-02-17T19:06:39.440Z,42.60
2018-02-17T19:09:06.904Z,34.47
2018-02-17T19:11:34.351Z,45.60
2018-02-17T19:14:01.817Z,37.23
2018-02-17T19:16:29.281Z,37.03
2018-02-17T19:18:57.509Z,38.40
2018-02-17T19:21:24.966Z,33.70
2018-02-17T19:23:52.438Z,36.10
2018-02-17T19:26:20.664Z,34.53
2018-02-17T19:28:48.886Z,36.43
2018-02-17T19:31:16.336Z,38.07
2018-02-17T19:33:43.823Z,41.23
2018-02-17T19:36:11.271Z,38.33
2018-02-17T19:38:38.742Z,39.20
2018-02-17T19:41:06.190Z,39.23
2018-02-17T19:43:33.657Z,37.73
2018-02-17T19:46:01.110Z,41.27
2018-02-17T19:48:28.572Z,43.50
2018-02-17T19:50:56.790Z,36.70
2018-02-17T19:53:24.256Z,41.27
2018-02-17T19:55:51.714Z,43.83
2018-02-17T19:58:19.181Z,36.57
2018-02-17T20:00:46.633Z,36.60
2018-02-17T20:03:14.098Z,37.83
2018-02-17T20:05:41.554Z,36.67
2018-02-17T20:08:09.014Z,44.40
2018-02-17T20:10:36.469Z,40.57
2018-02-17T20:13:03.926Z,34.07
2018-02-17T20:15:31.377Z,42.57
2018-02-17T20:17:58.834Z,44.27
2018-02-17T20:20:26.294Z,43.27
2018-02-17T20:22:53.754Z,44.17
2018-02-17T20:25:21.221Z,41.80
2018-02-17T20:27:48.669Z,41.13
2018-02-17T20:30:16.136Z,42.27
2018-02-17T20:32:43.591Z,38.83
2018-02-17T20:35:11.054Z,40.77
2018-02-17T20:37:38.509Z,38.50
2018-02-17T20:40:05.976Z,45.70
2018-02-17T20:42:33.431Z,42.50
2018-02-17T20:45:00.891Z,45.23
2018-02-17T20:47:29.115Z,41.30
2018-02-17T20:49:56.590Z,42.50
2018-02-17T20:52:24.034Z,36.23
2018-02-17T20:54:51.498Z,42.40
2018-02-17T20:57:19.796Z,45.67
2018-02-17T20:59:47.230Z,47.03
2018-02-17T21:02:14.689Z,50.30
2018-02-17T21:04:42.148Z,40.07
2018-02-17T21:07:10.373Z,44.10
2018-02-17T21:09:38.602Z,41.13
2018-02-17T21:12:06.062Z,48.00
2018-02-17T21:14:33.530Z,40.53
2018-02-17T21:17:00.989Z,46.20
2018-02-17T21:19:28.457Z,37.50
2018-02-17T21:21:55.906Z,40.60
2018-02-17T21:24:23.388Z,41.70
2018-02-17T21:26:51.612Z,50.43
2018-02-17T21:29:19.066Z,36.93
2018-02-17T21:31:46.533Z,42.10
2018-02-17T21:34:13.994Z,45.10
2018-02-17T21:36:41.461Z,46.07
2018-02-17T21:39:08.925Z,45.00
2018-02-17T21:41:36.384Z,52.40
2018-02-17T21:44:04.602Z,43.07
2018-02-17T21:46:32.077Z,41.60
2018-02-17T21:48:59.537Z,38.40
2018-02-17T21:51:26.997Z,39.70
2018-02-17T21:53:54.450Z,49.20
2018-02-17T21:56:21.921Z,43.40
2018-02-17T21:58:49.378Z,49.07
2018-02-17T22:01:16.841Z,43.40
2018-02-17T22:03:44.293Z,45.03
2018-02-17T22:06:11.782Z,45.13
2018-02-17T22:08:40.006Z,51.40
2018-02-17T22:11:07.473Z,47.17
2018-02-17T22:13:34.934Z,42.03
2018-02-17T22:16:02.400Z,41.67
2018-02-17T22:18:29.849Z,37.23
2018-02-17T22:20:57.310Z,45.50
2018-02-17T22:23:24.779Z,46.77
2018-02-17T22:25:52.230Z,41.90
2018-02-17T22:28:19.698Z,42.70
2018-02-17T22:30:47.936Z,41.70
2018-02-17T22:33:15.389Z,41.60
2018-02-17T22:35:42.846Z,51.43
2018-02-17T22:38:10.305Z,50.07
2018-02-17T22:40:37.795Z,42.47
2018-02-17T22:43:05.248Z,43.57
2018-02-17T22:45:32.726Z,38.93
2018-02-17T22:48:00.959Z,44.60
2018-02-17T22:50:28.414Z,43.50
2018-02-17T22:52:55.881Z,48.03
2018-02-17T22:55:23.334Z,50.00
2018-02-17T22:57:50.802Z,49.23
2018-02-17T23:00:30.119Z,46.63
2018-02-17T23:02:58.175Z,43.27
2018-02-17T23:05:25.959Z,46.83
2018-02-17T23:07:55.344Z,44.43
2018-02-17T23:10:23.147Z,44.00
2018-02-17T23:12:51.107Z,42.83
2018-02-17T23:15:19.224Z,44.77
2018-02-17T23:17:47.221Z,45.13
2018-02-17T23:20:15.215Z,42.83
2018-02-17T23:22:43.038Z,51.40
2018-02-17T23:25:12.231Z,47.10
2018-02-17T23:27:40.316Z,43.70
2018-02-17T23:30:08.109Z,40.47
2018-02-17T23:32:36.785Z,42.30
2018-02-17T23:35:04.635Z,45.80
2018-02-17T23:37:32.739Z,38.23
2018-02-17T23:40:01.527Z,36.83
2018-02-17T23:42:29.290Z,41.50
2018-02-17T23:44:57.286Z,42.27
2018-02-17T23:47:25.332Z,51.47
2018-02-17T23:49:53.140Z,47.90
2018-02-17T23:52:20.749Z,44.63
2018-02-17T23:54:49.235Z,44.27
2018-02-17T23:57:18.039Z,38.30
2018-02-17T23:59:45.772Z,45.10
